createdAt,value
2019-01-25T00:00:50.664Z,68.47
2019-01-25T00:03:18.915Z,80.17
2019-01-25T00:05:47.208Z,70.00
2019-01-25T00:08:15.455Z,77.43
2019-01-25T00:10:43.644Z,79.33
2019-01-25T00:13:11.877Z,74.13
2019-01-25T00:15:40.047Z,81.63
2019-01-25T00:18:08.307Z,73.63
2019-01-25T00:20:36.552Z,79.67
2019-01-25T00:23:04.819Z,71.57
2019-01-25T00:25:33.130Z,79.80
2019-01-25T00:28:01.482Z,77.13
2019-01-25T00:30:29.761Z,75.00
2019-01-25T00:32:57.973Z,75.17
2019-01-25T00:35:26.230Z,74.40
2019-01-25T00:37:54.524Z,71.23
2019-01-25T00:40:23.005Z,67.73
2019-01-25T00:42:51.367Z,77.60
2019-01-25T00:45:19.674Z,84.43
2019-01-25T00:47:47.965Z,76.03
2019-01-25T00:50:17.700Z,73.27
2019-01-25T00:52:45.993Z,83.87
2019-01-25T00:55:14.212Z,81.23
2019-01-25T00:57:42.458Z,66.60
2019-01-25T01:00:15.035Z,80.07
2019-01-25T01:02:43.325Z,77.87
2019-01-25T01:05:11.708Z,78.90
2019-01-25T01:07:39.945Z,71.83
2019-01-25T01:10:14.019Z,80.10
2019-01-25T01:12:39.777Z,71.13
2019-01-25T01:15:09.624Z,69.53
2019-01-25T01:17:37.812Z,74.60
2019-01-25T01:20:10.211Z,71.27
2019-01-25T01:22:39.162Z,66.90
2019-01-25T01:25:07.756Z,74.30
2019-01-25T01:27:36.007Z,75.60
2019-01-25T01:30:05.834Z,84.53
2019-01-25T01:32:34.125Z,77.00
2019-01-25T01:35:02.373Z,72.43
2019-01-25T01:37:30.581Z,68.10
2019-01-25T01:39:58.790Z,65.77
2019-01-25T01:42:27.013Z,74.27
2019-01-25T01:44:55.275Z,75.80
2019-01-25T01:47:23.598Z,76.20
2019-01-25T01:49:51.914Z,68.90
2019-01-25T01:52:20.171Z,70.13
2019-01-25T01:54:48.392Z,67.50
2019-01-25T01:57:16.586Z,74.83
2019-01-25T01:59:44.845Z,73.20
2019-01-25T02:02:13.056Z,69.03
2019-01-25T02:04:42.222Z,80.53
2019-01-25T02:07:10.496Z,72.53
2019-01-25T02:09:38.747Z,79.47
2019-01-25T02:12:07.070Z,71.07
2019-01-25T02:14:35.925Z,76.50
2019-01-25T02:17:04.304Z,68.37
2019-01-25T02:19:32.529Z,65.67
2019-01-25T02:22:00.710Z,85.53
2019-01-25T02:24:28.970Z,80.33
2019-01-25T02:26:57.214Z,74.60
2019-01-25T02:29:25.498Z,72.77
2019-01-25T02:31:53.802Z,71.47
2019-01-25T02:34:22.098Z,67.00
2019-01-25T02:36:50.405Z,79.97
2019-01-25T02:39:18.658Z,73.97
2019-01-25T02:41:46.911Z,77.40
2019-01-25T02:44:15.194Z,70.00
2019-01-25T02:46:43.500Z,75.13
2019-01-25T02:49:11.791Z,68.33
2019-01-25T02:51:40.005Z,76.17
2019-01-25T02:54:08.250Z,72.40
2019-01-25T02:56:36.580Z,76.80
2019-01-25T02:59:04.890Z,69.30
2019-01-25T03:01:34.060Z,68.33
2019-01-25T03:04:02.332Z,75.67
2019-01-25T03:06:30.606Z,73.53
2019-01-25T03:08:58.868Z,68.40
2019-01-25T03:11:27.131Z,80.50
2019-01-25T03:13:55.416Z,75.50
2019-01-25T03:16:23.666Z,72.03
2019-01-25T03:18:51.998Z,78.63
2019-01-25T03:21:20.281Z,81.10
2019-01-25T03:23:48.505Z,76.17
2019-01-25T03:26:16.726Z,70.23
2019-01-25T03:28:44.946Z,75.77
2019-01-25T03:31:13.129Z,82.40
2019-01-25T03:33:41.359Z,70.20
2019-01-25T03:36:09.542Z,76.97
2019-01-25T03:38:37.736Z,77.73
2019-01-25T03:41:05.942Z,74.00
2019-01-25T03:43:34.157Z,81.30
2019-01-25T03:46:02.349Z,80.07
2019-01-25T03:48:30.539Z,76.60
2019-01-25T03:50:58.769Z,86.50
2019-01-25T03:53:26.984Z,76.10
2019-01-25T03:55:55.171Z,72.03
2019-01-25T03:58:23.355Z,82.00
2019-01-25T04:00:51.589Z,89.10
2019-01-25T04:03:19.866Z,74.17
2019-01-25T04:05:48.089Z,78.83
2019-01-25T04:08:16.300Z,74.67
2019-01-25T04:10:44.525Z,80.73
2019-01-25T04:13:12.704Z,76.70
2019-01-25T04:15:40.926Z,78.70
2019-01-25T04:18:09.137Z,73.73
2019-01-25T04:20:37.337Z,81.43
2019-01-25T04:23:05.527Z,76.30
2019-01-25T04:25:33.723Z,85.20
2019-01-25T04:28:01.997Z,71.87
2019-01-25T04:30:30.789Z,84.03
2019-01-25T04:32:59.096Z,87.33
2019-01-25T04:35:27.368Z,76.90
2019-01-25T04:37:55.584Z,83.77
2019-01-25T04:40:23.813Z,78.50
2019-01-25T04:42:52.372Z,81.43
2019-01-25T04:45:21.333Z,80.00
2019-01-25T04:47:49.796Z,84.43
2019-01-25T04:50:19.351Z,81.80
2019-01-25T04:52:48.197Z,73.33
2019-01-25T04:55:21.106Z,70.50
2019-01-25T04:57:50.220Z,83.43
2019-01-25T05:00:19.748Z,70.47
2019-01-25T05:02:53.205Z,83.63
2019-01-25T05:05:21.520Z,87.80
2019-01-25T05:07:49.713Z,84.47
2019-01-25T05:10:17.916Z,79.57
2019-01-25T05:12:52.968Z,89.40
2019-01-25T05:15:21.609Z,84.60
2019-01-25T05:17:54.188Z,74.73
2019-01-25T05:20:22.386Z,91.73
2019-01-25T05:22:54.412Z,80.67
2019-01-25T05:25:23.362Z,80.60
2019-01-25T05:27:51.744Z,88.70
2019-01-25T05:30:20.334Z,83.63
2019-01-25T05:32:48.508Z,82.73
2019-01-25T05:35:19.624Z,82.50
2019-01-25T05:37:48.038Z,92.33
2019-01-25T05:40:20.530Z,89.67
2019-01-25T05:42:48.726Z,83.87
2019-01-25T05:45:17.111Z,83.17
2019-01-25T05:47:45.339Z,91.47
2019-01-25T05:50:14.301Z,79.97
2019-01-25T05:52:42.496Z,86.90
2019-01-25T05:55:12.291Z,76.63
2019-01-25T05:57:40.505Z,82.57
2019-01-25T06:00:12.985Z,86.50
2019-01-25T06:02:41.168Z,88.30
2019-01-25T06:05:10.137Z,87.90
2019-01-25T06:07:38.337Z,83.17
2019-01-25T06:10:12.879Z,93.67
2019-01-25T06:12:41.094Z,91.13
2019-01-25T06:15:10.557Z,90.67
2019-01-25T06:17:38.841Z,94.33
2019-01-25T06:20:08.602Z,73.23
2019-01-25T06:22:36.861Z,85.00
2019-01-25T06:25:06.515Z,84.20
2019-01-25T06:27:38.388Z,79.30
2019-01-25T06:30:10.906Z,78.33
2019-01-25T06:32:39.088Z,79.53
2019-01-25T06:35:08.386Z,80.83
2019-01-25T06:37:36.609Z,83.37
2019-01-25T06:40:06.737Z,80.60
2019-01-25T06:42:34.971Z,80.10
2019-01-25T06:45:04.236Z,70.97
2019-01-25T06:47:32.424Z,90.80
2019-01-25T06:50:00.919Z,97.03
2019-01-25T06:52:29.137Z,84.90
2019-01-25T06:54:57.380Z,83.87
2019-01-25T06:57:27.215Z,87.43
2019-01-25T06:59:55.400Z,86.27
2019-01-25T07:02:24.486Z,80.90
2019-01-25T07:04:52.660Z,85.73
2019-01-25T07:07:22.492Z,88.43
2019-01-25T07:09:50.683Z,84.50
2019-01-25T07:12:18.886Z,88.10
2019-01-25T07:14:47.084Z,84.50
2019-01-25T07:17:16.164Z,97.80
2019-01-25T07:19:44.356Z,98.07
2019-01-25T07:22:12.573Z,85.57
2019-01-25T07:24:40.845Z,89.00
2019-01-25T07:27:09.032Z,83.83
2019-01-25T07:29:37.258Z,86.87
2019-01-25T07:32:05.685Z,79.80
2019-01-25T07:34:33.877Z,93.87
2019-01-25T07:37:02.098Z,78.90
2019-01-25T07:39:30.313Z,87.37
2019-01-25T07:41:59.448Z,92.93
2019-01-25T07:44:28.418Z,96.33
2019-01-25T07:46:56.708Z,85.90
2019-01-25T07:49:24.972Z,96.93
2019-01-25T07:51:53.232Z,85.10
2019-01-25T07:54:21.465Z,96.80
2019-01-25T07:56:49.774Z,103.37
2019-01-25T07:59:18.093Z,86.03
2019-01-25T08:01:46.272Z,96.93
2019-01-25T08:04:14.485Z,96.07
2019-01-25T08:06:42.707Z,92.80
2019-01-25T08:09:10.918Z,95.47
2019-01-25T08:11:39.108Z,98.90
2019-01-25T08:14:07.397Z,102.30
2019-01-25T08:16:35.642Z,94.97
2019-01-25T08:19:03.885Z,97.97
2019-01-25T08:21:32.145Z,95.50
2019-01-25T08:24:00.372Z,97.10
2019-01-25T08:26:28.557Z,103.37
2019-01-25T08:28:56.757Z,96.87
2019-01-25T08:31:24.985Z,93.23
2019-01-25T08:33:53.173Z,106.87
2019-01-25T08:36:21.405Z,107.93
2019-01-25T08:38:49.686Z,110.03
2019-01-25T08:41:17.893Z,103.47
2019-01-25T08:43:46.226Z,106.40
2019-01-25T08:46:14.498Z,107.00
2019-01-25T08:48:42.762Z,103.10
2019-01-25T08:51:11.439Z,103.20
2019-01-25T08:53:41.501Z,96.27
2019-01-25T08:56:09.821Z,103.50
2019-01-25T08:58:38.068Z,94.07
2019-01-25T09:01:07.265Z,90.50
2019-01-25T09:03:35.491Z,96.77
2019-01-25T09:06:03.743Z,90.43
2019-01-25T09:08:32.032Z,99.37
2019-01-25T09:11:00.270Z,96.60
2019-01-25T09:13:28.501Z,94.10
2019-01-25T09:15:56.703Z,92.37
2019-01-25T09:18:24.902Z,96.10
2019-01-25T09:20:53.127Z,87.63
2019-01-25T09:23:21.311Z,100.70
2019-01-25T09:25:49.553Z,93.90
2019-01-25T09:28:17.808Z,92.97
2019-01-25T09:30:46.020Z,91.43
2019-01-25T09:33:14.211Z,86.67
2019-01-25T09:35:42.437Z,78.93
2019-01-25T09:38:10.685Z,92.37
2019-01-25T09:40:38.969Z,86.80
2019-01-25T09:43:07.205Z,86.17
2019-01-25T09:45:35.412Z,87.23
2019-01-25T09:48:03.869Z,90.00
2019-01-25T09:50:32.105Z,88.80
2019-01-25T09:53:00.325Z,85.87
2019-01-25T09:55:28.540Z,93.57
2019-01-25T09:58:13.596Z,89.00
2019-01-25T10:00:46.340Z,81.77
2019-01-25T10:03:14.528Z,84.70
2019-01-25T10:05:42.761Z,72.67
2019-01-25T10:08:10.940Z,80.33
2019-01-25T10:10:39.181Z,87.80
2019-01-25T10:13:07.368Z,74.20
2019-01-25T10:15:35.593Z,72.13
2019-01-25T10:18:03.876Z,75.37
2019-01-25T10:20:32.182Z,71.40
2019-01-25T10:23:01.855Z,74.97
2019-01-25T10:25:30.160Z,63.83
2019-01-25T10:27:58.364Z,71.20
2019-01-25T10:30:27.149Z,60.57
2019-01-25T10:32:55.385Z,63.10
2019-01-25T10:35:23.653Z,59.80
2019-01-25T10:37:52.400Z,53.43
2019-01-25T10:40:21.069Z,61.03
2019-01-25T10:42:53.193Z,55.50
2019-01-25T10:45:23.460Z,56.10
2019-01-25T10:47:51.676Z,61.53
2019-01-25T10:50:19.908Z,59.97
2019-01-25T10:52:48.160Z,52.53
2019-01-25T10:55:16.441Z,55.60
2019-01-25T10:57:44.851Z,51.73
2019-01-25T11:00:14.567Z,59.97
2019-01-25T11:02:42.769Z,67.50
2019-01-25T11:05:18.281Z,54.50
2019-01-25T11:07:46.489Z,50.93
2019-01-25T11:10:14.703Z,52.37
2019-01-25T11:12:43.167Z,55.37
2019-01-25T11:15:13.340Z,50.00
2019-01-25T11:17:41.576Z,50.30
2019-01-25T11:20:11.635Z,52.87
2019-01-25T11:22:39.852Z,52.30
2019-01-25T11:25:09.576Z,51.53
2019-01-25T11:27:38.769Z,55.20
2019-01-25T11:30:08.541Z,53.37
2019-01-25T11:32:36.763Z,49.20
2019-01-25T11:35:05.536Z,52.83
2019-01-25T11:37:33.752Z,51.17
2019-01-25T11:40:01.969Z,55.93
2019-01-25T11:42:30.185Z,49.70
2019-01-25T11:44:58.472Z,56.57
2019-01-25T11:47:26.720Z,58.77
2019-01-25T11:49:54.915Z,53.50
2019-01-25T11:52:25.165Z,53.90
2019-01-25T11:54:53.038Z,55.10
2019-01-25T11:57:21.249Z,58.77
2019-01-25T11:59:49.460Z,54.40
2019-01-25T12:02:20.976Z,60.07
2019-01-25T12:04:48.560Z,54.83
2019-01-25T12:07:16.778Z,52.90
2019-01-25T12:09:45.013Z,56.73
2019-01-25T12:12:13.220Z,57.93
2019-01-25T12:14:41.470Z,53.27
2019-01-25T12:17:09.745Z,50.70
2019-01-25T12:19:38.001Z,47.27
2019-01-25T12:22:06.213Z,50.67
2019-01-25T12:24:34.393Z,50.90
2019-01-25T12:27:02.612Z,49.67
2019-01-25T12:29:30.871Z,50.60
2019-01-25T12:31:59.233Z,58.27
2019-01-25T12:34:27.412Z,50.30
2019-01-25T12:36:55.616Z,44.90
2019-01-25T12:41:51.465Z,48.70
2019-01-25T12:46:47.040Z,56.93
2019-01-25T12:49:15.273Z,60.87
2019-01-25T12:51:43.762Z,60.43
2019-01-25T12:54:12.077Z,61.03
2019-01-25T12:56:40.289Z,64.63
2019-01-25T12:59:08.505Z,57.33
2019-01-25T13:01:36.816Z,56.13
2019-01-25T13:04:05.029Z,60.07
2019-01-25T13:06:33.232Z,63.23
2019-01-25T13:09:01.417Z,62.03
2019-01-25T13:11:29.628Z,63.00
2019-01-25T13:13:57.811Z,66.30
2019-01-25T13:16:26.013Z,64.23
2019-01-25T13:18:54.235Z,57.00
2019-01-25T13:21:22.520Z,65.93
2019-01-25T13:23:50.724Z,58.77
2019-01-25T13:26:19.021Z,69.40
2019-01-25T13:28:47.211Z,67.20
2019-01-25T13:31:15.503Z,60.10
2019-01-25T13:33:45.695Z,63.47
2019-01-25T13:36:13.948Z,66.50
2019-01-25T13:38:42.210Z,61.53
2019-01-25T13:41:10.399Z,63.60
2019-01-25T13:43:39.207Z,66.90
2019-01-25T13:46:07.660Z,55.63
2019-01-25T13:48:35.878Z,63.97
2019-01-25T13:51:04.265Z,60.37
2019-01-25T13:53:32.478Z,60.43
2019-01-25T13:56:00.668Z,65.03
2019-01-25T13:58:29.096Z,58.70
2019-01-25T14:00:57.288Z,60.17
2019-01-25T14:03:25.506Z,65.07
2019-01-25T14:05:53.732Z,65.33
2019-01-25T14:08:21.912Z,72.03
2019-01-25T14:10:50.169Z,74.80
2019-01-25T14:13:18.377Z,65.03
2019-01-25T14:18:13.943Z,67.90
2019-01-25T14:20:42.159Z,60.95
2019-01-25T14:23:10.367Z,66.47
2019-01-25T14:25:38.567Z,69.97
2019-01-25T14:28:06.778Z,71.03
2019-01-25T14:30:36.075Z,66.07
2019-01-25T14:33:05.175Z,68.97
2019-01-25T14:35:33.441Z,68.50
2019-01-25T14:38:01.704Z,73.90
2019-01-25T14:40:29.929Z,71.70
2019-01-25T14:42:58.142Z,65.17
2019-01-25T14:45:27.733Z,67.57
2019-01-25T14:47:55.920Z,73.10
2019-01-25T14:50:25.576Z,76.47
2019-01-25T14:52:53.804Z,76.67
2019-01-25T14:55:21.984Z,72.30
2019-01-25T14:57:50.196Z,86.30
2019-01-25T15:00:18.417Z,98.87
2019-01-25T15:02:46.613Z,75.47
2019-01-25T15:05:16.184Z,79.57
2019-01-25T15:07:44.380Z,80.73
2019-01-25T15:10:16.377Z,77.85
2019-01-25T15:12:44.667Z,82.33
2019-01-25T15:15:13.645Z,87.97
2019-01-25T15:17:41.870Z,95.10
2019-01-25T15:20:14.618Z,94.90
2019-01-25T15:22:43.873Z,88.23
2019-01-25T15:25:12.126Z,87.50
2019-01-25T15:27:40.355Z,75.50
2019-01-25T15:30:14.309Z,78.10
2019-01-25T15:32:42.491Z,71.97
2019-01-25T15:35:11.770Z,78.33
2019-01-25T15:37:39.948Z,74.93
2019-01-25T15:40:09.741Z,81.83
2019-01-25T15:42:37.965Z,77.40
2019-01-25T15:45:08.036Z,78.50
2019-01-25T15:47:36.236Z,73.83
2019-01-25T15:50:15.117Z,86.30
2019-01-25T15:52:43.325Z,89.60
2019-01-25T15:55:11.642Z,77.70
2019-01-25T15:57:39.863Z,79.87
2019-01-25T16:00:18.400Z,86.90
2019-01-25T16:02:46.675Z,87.63
2019-01-25T16:05:15.830Z,80.80
2019-01-25T16:07:44.084Z,87.40
2019-01-25T16:10:13.468Z,104.50
2019-01-25T16:12:41.660Z,87.07
2019-01-25T16:15:11.390Z,103.50
2019-01-25T16:17:39.667Z,93.50
2019-01-25T16:20:09.461Z,83.23
2019-01-25T16:22:37.691Z,82.07
2019-01-25T16:25:07.480Z,84.77
2019-01-25T16:27:35.664Z,76.67
2019-01-25T16:30:05.454Z,92.90
2019-01-25T16:32:33.745Z,77.50
2019-01-25T16:35:01.946Z,80.53
2019-01-25T16:37:30.132Z,88.07
2019-01-25T16:39:58.390Z,77.40
2019-01-25T16:42:26.628Z,81.97
2019-01-25T16:44:54.863Z,74.77
2019-01-25T16:47:23.074Z,82.43
2019-01-25T16:49:51.283Z,78.20
2019-01-25T16:52:19.504Z,77.80
2019-01-25T16:54:47.795Z,85.97
2019-01-25T16:57:16.064Z,86.03
2019-01-25T16:59:44.247Z,80.37
2019-01-25T17:02:12.492Z,85.43
2019-01-25T17:04:40.711Z,85.13
2019-01-25T17:07:08.971Z,77.07
2019-01-25T17:09:37.167Z,72.07
2019-01-25T17:12:05.417Z,80.53
2019-01-25T17:14:33.767Z,85.87
2019-01-25T17:17:01.991Z,88.97
2019-01-25T17:19:30.211Z,95.33
2019-01-25T17:21:58.401Z,84.77
2019-01-25T17:24:26.588Z,82.03
2019-01-25T17:26:54.783Z,71.40
2019-01-25T17:29:23.010Z,80.80
2019-01-25T17:31:51.281Z,84.97
2019-01-25T17:34:19.500Z,78.80
2019-01-25T17:36:47.714Z,89.10
2019-01-25T17:39:15.944Z,85.60
2019-01-25T17:41:44.129Z,89.40
2019-01-25T17:44:12.315Z,74.80
2019-01-25T17:46:40.585Z,78.03
2019-01-25T17:49:09.752Z,85.17
2019-01-25T17:51:38.106Z,90.13
2019-01-25T17:54:06.292Z,82.70
2019-01-25T17:56:34.484Z,69.13
2019-01-25T17:59:02.688Z,81.47
2019-01-25T18:01:30.937Z,78.33
2019-01-25T18:03:59.124Z,79.93
2019-01-25T18:06:27.330Z,93.27
2019-01-25T18:08:55.528Z,81.27
2019-01-25T18:11:23.719Z,96.27
2019-01-25T18:13:51.923Z,76.63
2019-01-25T18:16:20.140Z,82.03
2019-01-25T18:18:48.324Z,83.60
2019-01-25T18:21:16.532Z,82.83
2019-01-25T18:23:44.727Z,88.73
2019-01-25T18:26:13.124Z,86.20
2019-01-25T18:28:41.968Z,84.10
2019-01-25T18:31:11.738Z,86.77
2019-01-25T18:33:39.949Z,90.13
2019-01-25T18:36:08.151Z,89.30
2019-01-25T18:38:36.367Z,86.90
2019-01-25T18:41:04.642Z,91.30
2019-01-25T18:43:32.836Z,91.23
2019-01-25T18:46:01.024Z,86.33
2019-01-25T18:48:29.256Z,83.50
2019-01-25T18:50:57.485Z,81.73
2019-01-25T18:53:25.721Z,90.73
2019-01-25T18:55:57.197Z,94.07
2019-01-25T18:58:25.416Z,79.13
2019-01-25T19:00:53.640Z,90.17
2019-01-25T19:03:21.819Z,85.37
2019-01-25T19:05:50.059Z,89.00
2019-01-25T19:08:18.298Z,92.87
2019-01-25T19:10:46.603Z,89.27
2019-01-25T19:13:14.800Z,76.73
2019-01-25T19:15:43.037Z,88.00
2019-01-25T19:18:11.256Z,95.77
2019-01-25T19:20:39.489Z,90.63
2019-01-25T19:23:07.713Z,86.53
2019-01-25T19:25:35.930Z,91.83
2019-01-25T19:28:04.118Z,90.97
2019-01-25T19:30:36.748Z,88.97
2019-01-25T19:33:05.024Z,91.93
2019-01-25T19:35:33.208Z,84.83
2019-01-25T19:38:01.441Z,91.93
2019-01-25T19:40:30.936Z,93.00
2019-01-25T19:42:59.128Z,100.70
2019-01-25T19:45:27.396Z,80.27
2019-01-25T19:47:55.621Z,94.70
2019-01-25T19:50:23.916Z,88.33
2019-01-25T19:52:52.111Z,86.77
2019-01-25T19:55:21.500Z,79.53
2019-01-25T19:57:49.992Z,72.93
2019-01-25T20:00:19.977Z,77.33
2019-01-25T20:02:48.201Z,63.20
2019-01-25T20:05:17.972Z,66.10
2019-01-25T20:07:46.156Z,61.50
2019-01-25T20:10:14.805Z,40.83
2019-01-25T20:12:42.988Z,54.90
2019-01-25T20:15:19.503Z,54.90
2019-01-25T20:17:45.379Z,66.43
2019-01-25T20:20:19.120Z,61.17
2019-01-25T20:22:47.349Z,52.80
2019-01-25T20:25:15.588Z,43.97
2019-01-25T20:27:43.800Z,54.30
2019-01-25T20:30:16.424Z,51.90
2019-01-25T20:32:44.649Z,52.00
2019-01-25T20:35:15.068Z,53.97
2019-01-25T20:37:43.296Z,51.67
2019-01-25T20:40:12.851Z,41.20
2019-01-25T20:42:41.177Z,47.40
2019-01-25T20:45:13.937Z,50.57
2019-01-25T20:47:42.168Z,50.23
2019-01-25T20:50:11.944Z,42.40
2019-01-25T20:52:40.173Z,53.20
2019-01-25T20:55:09.910Z,45.40
2019-01-25T20:57:38.141Z,42.83
2019-01-25T21:00:08.570Z,55.10
2019-01-25T21:02:37.128Z,55.73
2019-01-25T21:05:06.787Z,55.00
2019-01-25T21:07:35.069Z,48.30
2019-01-25T21:10:04.932Z,48.50
2019-01-25T21:12:33.165Z,44.37
2019-01-25T21:15:01.360Z,56.30
2019-01-25T21:17:29.573Z,54.13
2019-01-25T21:19:57.793Z,46.60
2019-01-25T21:22:26.034Z,50.40
2019-01-25T21:24:54.212Z,57.53
2019-01-25T21:27:22.440Z,57.20
2019-01-25T21:29:50.640Z,47.67
2019-01-25T21:32:18.857Z,54.73
2019-01-25T21:34:47.089Z,50.87
2019-01-25T21:37:15.292Z,58.93
2019-01-25T21:39:43.500Z,56.50
2019-01-25T21:42:11.759Z,54.87
2019-01-25T21:44:39.944Z,50.10
2019-01-25T21:47:08.149Z,57.20
2019-01-25T21:49:36.332Z,57.87
2019-01-25T21:52:04.576Z,57.13
2019-01-25T21:54:32.824Z,54.33
2019-01-25T21:57:01.057Z,60.30
2019-01-25T21:59:29.252Z,69.20
2019-01-25T22:01:57.444Z,59.73
2019-01-25T22:04:25.650Z,68.50
2019-01-25T22:06:53.828Z,65.17
2019-01-25T22:09:22.052Z,68.10
2019-01-25T22:11:50.278Z,67.53
2019-01-25T22:14:18.565Z,68.50
2019-01-25T22:16:46.865Z,63.17
2019-01-25T22:19:15.086Z,63.10
2019-01-25T22:21:43.293Z,75.50
2019-01-25T22:24:11.492Z,67.27
2019-01-25T22:26:39.713Z,63.40
2019-01-25T22:29:07.907Z,67.33
2019-01-25T22:31:36.108Z,67.40
2019-01-25T22:34:04.294Z,71.70
2019-01-25T22:36:32.530Z,66.60
2019-01-25T22:39:00.773Z,72.63
2019-01-25T22:41:28.997Z,65.00
2019-01-25T22:43:57.205Z,59.30
2019-01-25T22:46:25.441Z,71.97
2019-01-25T22:48:53.620Z,72.33
2019-01-25T22:51:21.852Z,71.00
2019-01-25T22:53:50.091Z,55.80
2019-01-25T22:56:18.304Z,62.97
2019-01-25T22:58:46.487Z,67.47
2019-01-25T23:01:17.225Z,57.93
2019-01-25T23:04:02.271Z,58.83
2019-01-25T23:06:31.996Z,60.37
2019-01-25T23:09:01.771Z,62.57
2019-01-25T23:11:30.029Z,65.10
2019-01-25T23:13:58.244Z,67.90
2019-01-25T23:16:26.455Z,62.07
2019-01-25T23:18:54.723Z,70.73
2019-01-25T23:21:22.913Z,63.37
2019-01-25T23:23:51.136Z,59.63
2019-01-25T23:26:19.322Z,64.60
2019-01-25T23:28:47.538Z,61.43
2019-01-25T23:31:15.762Z,65.27
2019-01-25T23:33:43.983Z,69.07
2019-01-25T23:36:12.167Z,63.73
2019-01-25T23:38:40.390Z,61.67
2019-01-25T23:41:08.613Z,71.23
2019-01-25T23:43:36.796Z,64.13
2019-01-25T23:46:05.002Z,67.03
2019-01-25T23:48:33.245Z,66.73
2019-01-25T23:51:01.452Z,64.10
2019-01-25T23:53:29.631Z,68.97
2019-01-25T23:55:57.868Z,73.47
2019-01-25T23:58:26.047Z,74.27
